This is the latest recevied weather packets stored in our database for station/object IW0RQH-13. If no packets are shown the sender has not sent any weather packets the latest 10 day(s).
| Time | Temp. | Humidity | Pressure | Rain* | Wind** | Luminosity | Snow |
|---|---|---|---|---|---|---|---|
| 1777884305 | 16.67° C | 62% | 1018.9 hPa | 0 mm | - | 535 W/m² | - |
| 1777883246 | 17.78° C | 60% | 1018.9 hPa | 0 mm | - | 432 W/m² | - |
| 1777879623 | 15.56° C | 67% | 1018.9 hPa | 0 mm | - | 404 W/m² | - |
| 1777874046 | 12.78° C | 74% | 1019.1 hPa | 0 mm | - | 161 W/m² | - |
| 1777871343 | 11.11° C | 78% | 1018.7 hPa | 0 mm | - | 74 W/m² | - |
| 1777869365 | 10.56° C | 81% | 1018.6 hPa | 0 mm | - | 33 W/m² | - |
| 1777867204 | 10.56° C | 81% | 1018.3 hPa | 0 mm | - | 3 W/m² | - |
| 1777865224 | 10.56° C | 81% | 1017.9 hPa | 0 mm | - | 0 W/m² | - |
| 1777864683 | 11.11° C | 79% | 1018.1 hPa | 0 mm | - | 0 W/m² | - |
| 1777859110 | 12.22° C | 75% | 1018.2 hPa | 0 mm | - | 0 W/m² | - |
| 1777851903 | 13.33° C | 71% | 1018.4 hPa | 0 mm | - | 0 W/m² | - |
| 1777850823 | 13.33° C | 71% | 1018.4 hPa | 0 mm | - | 0 W/m² | - |
| 1777850284 | 13.33° C | 71% | 1018.5 hPa | 0 mm | - | 0 W/m² | - |
| 1777849206 | 13.33° C | 71% | 1018.6 hPa | 0 mm | - | 0 W/m² | - |
| 1777845606 | 15° C | 66% | 1018.5 hPa | 0 mm | - | 0 W/m² | - |
| 1777844168 | 15.56° C | 64% | 1018.3 hPa | 0 mm | - | 0 W/m² | - |
| 1777835345 | 18.89° C | 55% | 1016.7 hPa | 0 mm | - | 0 W/m² | - |
| 1777834804 | 18.89° C | 54% | 1016.8 hPa | 0 mm | - | 0 W/m² | - |
| 1777831743 | 21.11° C | 42% | 1016.2 hPa | 0 mm | - | 1 W/m² | - |
| 1777831204 | 21.11° C | 40% | 1016.2 hPa | 0 mm | - | 6 W/m² | - |
| 1777829763 | 22.22° C | 38% | 1015.8 hPa | 0 mm | - | 21 W/m² | - |
| 1777825624 | 23.33° C | 34% | 1016 hPa | 0 mm | - | 85 W/m² | - |
| 1777815903 | 22.22° C | 36% | 1017.5 hPa | 0 mm | - | 539 W/m² | - |
| 1777815365 | 22.78° C | 34% | 1017.3 hPa | 0 mm | - | 557 W/m² | - |
| 1777814823 | 22.22° C | 35% | 1017.4 hPa | 0 mm | - | 599 W/m² | - |
* Rain latest hour (hover to see other rain measurements)
** Current wind speed in m/s (hover to see current wind gust speed)